Time;durP1;ratioP1;P1;durP2;ratioP2;P2;SDS_P1;SDS_P2;PMS_P1;PMS_P2;Temp;Humidity;BMP_temperature;BMP_pressure;BME280_temperature;BME280_humidity;BME280_pressure;Samples;Min_cycle;Max_cycle;Signal;HPM_P1;HPM_P2
2023/07/14 00:01:43;;;;;;;13.27;11.98;;;;;;;15.38;100.00;101589.47;5037172;28;20033;-70
2023/07/14 00:04:14;;;;;;;12.05;10.82;;;;;;;15.43;100.00;101590.03;5040979;28;20037;-71
2023/07/14 00:06:41;;;;;;;12.27;10.88;;;;;;;15.39;100.00;101588.50;5038503;28;20048;-70
2023/07/14 00:09:31;;;;;;;13.57;12.10;;;;;;;15.46;100.00;101578.25;5035686;28;20034;-66
2023/07/14 00:11:57;;;;;;;12.77;11.40;;;;;;;15.49;100.00;101574.53;5040019;28;20206;-73
2023/07/14 00:14:24;;;;;;;13.43;12.15;;;;;;;15.53;100.00;101584.97;5035652;28;20379;-73
2023/07/14 00:16:50;;;;;;;14.77;12.25;;;;;;;15.59;100.00;101578.38;5040154;28;20119;-70
2023/07/14 00:19:18;;;;;;;14.65;12.30;;;;;;;15.55;100.00;101572.34;5037280;28;20025;-73
2023/07/14 00:21:44;;;;;;;12.57;11.23;;;;;;;15.60;100.00;101575.63;5035887;28;20051;-73
2023/07/14 00:24:13;;;;;;;12.95;11.60;;;;;;;15.60;100.00;101566.72;5044852;28;20021;-71
2023/07/14 00:26:40;;;;;;;13.38;11.98;;;;;;;15.61;100.00;101568.44;5035926;28;20041;-70
2023/07/14 00:29:37;;;;;;;10.98;9.93;;;;;;;15.57;100.00;101562.38;5037450;28;20048;-67
2023/07/14 00:32:15;;;;;;;11.27;10.07;;;;;;;15.56;100.00;101571.38;5029092;28;20143;-74
2023/07/14 00:34:42;;;;;;;12.77;11.45;;;;;;;15.45;100.00;101568.47;5025127;28;20132;-70
2023/07/14 00:37:07;;;;;;;12.75;10.90;;;;;;;15.38;100.00;101567.09;5052601;28;20479;-74
2023/07/14 00:39:33;;;;;;;11.63;10.38;;;;;;;15.39;100.00;101567.03;5034196;28;20036;-72
2023/07/14 00:41:58;;;;;;;14.98;11.88;;;;;;;15.39;100.00;101572.41;5036796;28;20116;-71
2023/07/14 00:44:24;;;;;;;12.55;11.35;;;;;;;15.30;100.00;101564.91;5022738;28;20024;-69
2023/07/14 00:46:50;;;;;;;12.07;10.75;;;;;;;15.28;100.00;101569.47;5040002;28;20057;-72
2023/07/14 00:49:34;;;;;;;13.02;10.65;;;;;;;15.31;100.00;101574.69;5032774;28;20036;-67
2023/07/14 00:52:31;;;;;;;12.15;10.95;;;;;;;15.29;100.00;101559.63;5038385;28;20034;-72
2023/07/14 00:54:57;;;;;;;12.65;10.18;;;;;;;15.37;100.00;101557.34;5027766;28;20025;-70
2023/07/14 00:57:26;;;;;;;12.13;10.88;;;;;;;15.36;100.00;101555.63;5041259;28;20026;-67
2023/07/14 00:59:56;;;;;;;15.38;11.07;;;;;;;15.34;100.00;101545.00;5026009;28;20033;-70
2023/07/14 01:02:23;;;;;;;12.23;11.00;;;;;;;15.37;100.00;101551.97;5037170;28;20260;-72
2023/07/14 01:04:56;;;;;;;11.55;10.30;;;;;;;15.42;100.00;101553.44;5037472;28;20079;-74
2023/07/14 01:07:26;;;;;;;13.45;11.00;;;;;;;15.45;100.00;101545.19;5029756;28;20063;-71
2023/07/14 01:09:54;;;;;;;11.82;10.63;;;;;;;15.49;100.00;101559.28;5032283;28;20437;-70
2023/07/14 01:12:22;;;;;;;12.95;11.45;;;;;;;15.46;100.00;101548.72;5036951;28;20040;-70
2023/07/14 01:14:51;;;;;;;12.45;11.23;;;;;;;15.50;100.00;101558.34;5040555;28;20072;-72
2023/07/14 01:17:18;;;;;;;12.40;11.10;;;;;;;15.49;100.00;101547.69;5037190;28;20106;-71
2023/07/14 01:20:03;;;;;;;12.18;10.88;;;;;;;15.55;100.00;101550.00;5034456;28;20056;-72
2023/07/14 01:22:53;;;;;;;12.07;10.77;;;;;;;15.56;100.00;101546.38;5035446;28;20487;-71
2023/07/14 01:25:36;;;;;;;12.35;10.77;;;;;;;15.48;100.00;101538.78;5035788;28;20040;-67
2023/07/14 01:28:11;;;;;;;11.75;10.27;;;;;;;15.36;100.00;101543.06;5031287;28;20135;-71
2023/07/14 01:30:38;;;;;;;12.05;10.75;;;;;;;15.37;100.00;101535.88;5037139;28;20611;-74
2023/07/14 01:33:06;;;;;;;13.18;10.05;;;;;;;15.32;100.00;101541.53;5033281;28;20025;-74
2023/07/14 01:35:36;;;;;;;11.65;10.48;;;;;;;15.27;100.00;101538.25;5028128;28;20107;-71
2023/07/14 01:38:02;;;;;;;11.45;10.35;;;;;;;15.24;100.00;101541.13;5039089;28;20021;-66
2023/07/14 01:40:32;;;;;;;11.93;10.68;;;;;;;15.27;100.00;101535.59;5032934;28;20488;-75
2023/07/14 01:43:06;;;;;;;12.43;11.05;;;;;;;15.33;100.00;101539.69;5034098;28;20463;-68
2023/07/14 01:45:42;;;;;;;13.48;11.18;;;;;;;15.35;100.00;101538.66;5037109;28;20032;-67
2023/07/14 01:48:13;;;;;;;12.27;10.98;;;;;;;15.38;100.00;101533.13;5023325;28;20418;-74
2023/07/14 01:50:50;;;;;;;11.10;10.10;;;;;;;15.40;100.00;101533.88;5035188;28;20034;-73
2023/07/14 01:53:46;;;;;;;11.32;10.13;;;;;;;15.41;100.00;101529.38;5036812;28;20017;-74
2023/07/14 01:56:17;;;;;;;10.80;9.75;;;;;;;15.40;100.00;101536.56;5018794;28;20060;-71
2023/07/14 01:59:01;;;;;;;9.73;8.73;;;;;;;15.44;100.00;101535.44;5030063;28;20158;-75
2023/07/14 02:01:27;;;;;;;;;;;;;;;15.50;100.00;101534.19;5034276;28;20033;-69
2023/07/14 02:03:55;;;;;;;10.27;9.27;;;;;;;15.47;100.00;101541.53;5033325;28;19924;-74
2023/07/14 02:06:22;;;;;;;11.15;10.20;;;;;;;15.50;100.00;101531.50;5030883;28;20116;-73
2023/07/14 02:08:48;;;;;;;11.02;9.95;;;;;;;15.52;100.00;101529.59;5038378;28;20068;-71
2023/07/14 02:11:23;;;;;;;10.95;9.95;;;;;;;15.51;100.00;101527.00;5050760;28;20562;-69
2023/07/14 02:13:52;;;;;;;10.82;9.73;;;;;;;15.47;100.00;101520.97;5028121;28;20060;-74
2023/07/14 02:16:17;;;;;;;10.68;9.48;;;;;;;15.46;100.00;101513.88;5032411;28;20060;-71
2023/07/14 02:18:45;;;;;;;10.82;9.25;;;;;;;15.38;100.00;101524.19;5040243;28;20056;-76
2023/07/14 02:21:12;;;;;;;11.20;9.15;;;;;;;15.31;100.00;101514.81;5041215;28;20017;-73
2023/07/14 02:23:40;;;;;;;10.25;9.20;;;;;;;15.28;100.00;101513.16;5025189;28;20074;-75
2023/07/14 02:26:14;;;;;;;11.65;9.32;;;;;;;15.25;100.00;101518.69;5030764;28;20021;-68
2023/07/14 02:28:40;;;;;;;10.98;9.45;;;;;;;15.13;100.00;101511.38;5035678;28;20091;-70
2023/07/14 02:31:32;;;;;;;10.38;9.30;;;;;;;15.14;100.00;101513.13;5028602;28;20024;-73
2023/07/14 02:33:57;;;;;;;11.18;9.55;;;;;;;15.10;100.00;101511.59;5036043;28;20491;-73
2023/07/14 02:36:32;;;;;;;10.15;8.73;;;;;;;15.14;100.00;101516.69;5038766;28;20376;-68
2023/07/14 02:38:58;;;;;;;10.07;9.07;;;;;;;15.16;100.00;101513.88;5029640;28;20330;-72
2023/07/14 02:41:29;;;;;;;9.68;8.68;;;;;;;15.21;100.00;101511.78;5039686;28;20028;-71
2023/07/14 02:44:02;;;;;;;9.10;8.20;;;;;;;15.20;100.00;101512.75;5037965;28;20024;-71
2023/07/14 02:46:43;;;;;;;11.93;8.60;;;;;;;15.16;100.00;101511.22;5038438;28;20171;-72
2023/07/14 02:49:09;;;;;;;9.18;8.27;;;;;;;15.15;100.00;101509.50;5040101;28;20029;-74
2023/07/14 02:51:36;;;;;;;8.77;7.80;;;;;;;15.06;100.00;101518.09;5027008;28;20075;-71
2023/07/14 02:54:03;;;;;;;8.40;7.60;;;;;;;14.99;100.00;101517.56;5037559;28;20021;-73
2023/07/14 02:56:28;;;;;;;9.65;7.70;;;;;;;14.94;100.00;101507.13;5032817;28;20288;-71
2023/07/14 02:58:54;;;;;;;9.55;7.68;;;;;;;14.89;100.00;101519.94;5036353;28;20529;-70
2023/07/14 03:01:20;;;;;;;7.90;7.20;;;;;;;14.88;100.00;101512.84;5038594;28;20490;-73
2023/07/14 03:03:46;;;;;;;8.52;7.65;;;;;;;14.86;100.00;101506.69;5039136;28;20036;-75
2023/07/14 03:06:14;;;;;;;8.52;7.30;;;;;;;14.90;100.00;101505.56;5029947;28;20502;-75
2023/07/14 03:08:39;;;;;;;7.38;6.78;;;;;;;14.88;100.00;101499.44;5037985;28;20036;-74
2023/07/14 03:11:05;;;;;;;8.40;7.20;;;;;;;14.94;100.00;101501.75;5035035;28;20520;-73
2023/07/14 03:13:35;;;;;;;8.23;6.85;;;;;;;14.87;100.00;101504.88;5039170;28;20029;-74
2023/07/14 03:16:03;;;;;;;8.52;6.97;;;;;;;14.95;100.00;101503.47;5027093;28;20052;-70
2023/07/14 03:18:30;;;;;;;8.20;7.40;;;;;;;14.95;100.00;101502.63;5034138;28;20029;-73
2023/07/14 03:21:01;;;;;;;8.80;7.05;;;;;;;15.00;100.00;101496.97;5025047;28;20033;-71
2023/07/14 03:23:27;;;;;;;8.70;7.72;;;;;;;15.05;100.00;101500.25;5035524;28;20032;-73
2023/07/14 03:26:01;;;;;;;7.03;6.32;;;;;;;15.04;100.00;101499.38;5047108;28;20505;-74
2023/07/14 03:28:27;;;;;;;8.68;7.07;;;;;;;15.08;100.00;101492.03;5039323;28;20113;-71
2023/07/14 03:30:53;;;;;;;8.80;6.88;;;;;;;15.10;100.00;101495.50;5026940;28;20059;-75
2023/07/14 03:33:18;;;;;;;7.95;7.07;;;;;;;15.12;100.00;101494.44;5037476;28;20071;-73
2023/07/14 03:35:44;;;;;;;7.35;6.65;;;;;;;15.11;100.00;101494.53;5031833;28;20611;-76
2023/07/14 03:38:09;;;;;;;7.47;6.68;;;;;;;15.11;100.00;101492.72;5039070;28;20033;-67
2023/07/14 03:40:35;;;;;;;7.15;6.45;;;;;;;15.06;100.00;101488.59;5032500;28;20110;-75
2023/07/14 03:43:03;;;;;;;6.63;6.00;;;;;;;15.03;100.00;101489.63;5034755;28;20095;-67
2023/07/14 03:45:31;;;;;;;7.95;6.05;;;;;;;15.02;100.00;101487.06;5030198;28;20029;-70
2023/07/14 03:47:56;;;;;;;9.25;6.38;;;;;;;15.04;100.00;101479.75;5038203;28;20045;-69
2023/07/14 03:50:22;;;;;;;7.05;6.25;;;;;;;14.99;100.00;101479.19;5036297;28;20044;-75
2023/07/14 03:52:47;;;;;;;6.40;5.80;;;;;;;15.00;100.00;101473.72;5038482;28;20487;-73
2023/07/14 03:55:14;;;;;;;6.53;5.60;;;;;;;15.04;100.00;101474.41;5033816;28;20021;-72
2023/07/14 03:57:40;;;;;;;6.95;6.22;;;;;;;15.10;100.00;101471.38;5038657;28;20032;-72
2023/07/14 04:00:12;;;;;;;7.88;6.20;;;;;;;15.11;100.00;101475.78;5033456;28;20446;-74
2023/07/14 04:02:41;;;;;;;6.37;5.77;;;;;;;15.13;100.00;101476.53;5033483;28;20048;-73
2023/07/14 04:05:08;;;;;;;8.73;6.82;;;;;;;15.10;100.00;101476.72;5036394;28;20291;-76
2023/07/14 04:07:38;;;;;;;8.98;7.38;;;;;;;15.09;100.00;101474.97;5037377;28;20025;-74
2023/07/14 04:10:05;;;;;;;9.27;7.68;;;;;;;15.08;100.00;101474.13;5026283;28;20036;-73
2023/07/14 04:12:32;;;;;;;7.97;7.18;;;;;;;15.06;100.00;101477.88;5025999;28;20033;-67
2023/07/14 04:14:58;;;;;;;9.35;7.57;;;;;;;15.04;100.00;101477.06;5034538;28;20572;-71
2023/07/14 04:17:23;;;;;;;7.80;6.78;;;;;;;15.01;100.00;101478.16;5034084;28;20029;-77
2023/07/14 04:19:50;;;;;;;8.00;6.80;;;;;;;14.95;100.00;101475.81;5030084;28;20021;-72
2023/07/14 04:22:17;;;;;;;8.45;6.65;;;;;;;14.91;100.00;101479.63;5034589;28;20033;-74
2023/07/14 04:24:42;;;;;;;7.82;7.03;;;;;;;14.88;100.00;101472.66;5038743;28;20373;-76
2023/07/14 04:27:08;;;;;;;7.07;6.30;;;;;;;14.91;100.00;101475.13;5026197;28;20539;-74
2023/07/14 04:29:34;;;;;;;9.00;6.78;;;;;;;14.92;100.00;101473.31;5037738;28;20032;-74
2023/07/14 04:31:59;;;;;;;8.43;7.38;;;;;;;14.94;100.00;101469.59;5029276;28;20025;-69
2023/07/14 04:34:29;;;;;;;7.95;6.63;;;;;;;14.91;100.00;101466.22;5041421;28;20049;-73
2023/07/14 04:36:55;;;;;;;7.30;6.30;;;;;;;14.94;100.00;101471.41;5036624;28;20028;-76
2023/07/14 04:39:23;;;;;;;6.93;6.18;;;;;;;14.93;100.00;101470.56;5030685;28;20439;-79
2023/07/14 04:41:49;;;;;;;8.40;6.47;;;;;;;14.93;100.00;101473.22;5033621;28;20557;-79
2023/07/14 04:44:16;;;;;;;7.45;6.65;;;;;;;14.93;100.00;101475.91;5035748;28;20498;-71
2023/07/14 04:46:44;;;;;;;8.60;6.57;;;;;;;14.89;100.00;101471.69;5039701;28;20121;-69
2023/07/14 04:49:10;;;;;;;8.63;7.05;;;;;;;14.86;100.00;101471.84;5026771;28;20746;-71
2023/07/14 04:51:36;;;;;;;11.30;8.48;;;;;;;14.83;100.00;101466.66;5032798;28;20701;-71
2023/07/14 04:54:02;;;;;;;9.85;8.85;;;;;;;14.82;100.00;101464.94;5030867;28;20125;-75
2023/07/14 04:56:29;;;;;;;12.27;9.93;;;;;;;14.91;100.00;101472.44;5032408;28;20104;-73
2023/07/14 04:58:55;;;;;;;11.00;9.50;;;;;;;14.88;100.00;101480.69;5037579;28;20037;-76
2023/07/14 05:01:20;;;;;;;10.90;9.73;;;;;;;14.98;100.00;101482.81;5032847;28;20360;-70
2023/07/14 05:03:45;;;;;;;9.95;8.68;;;;;;;14.99;100.00;101474.69;5041759;28;20047;-75
2023/07/14 05:06:12;;;;;;;9.48;7.70;;;;;;;14.96;100.00;101472.16;5035522;28;20111;-75
2023/07/14 05:08:38;;;;;;;10.07;8.95;;;;;;;14.97;100.00;101473.91;5035534;28;20430;-77
2023/07/14 05:11:03;;;;;;;10.73;8.70;;;;;;;14.94;100.00;101471.41;5036631;28;20032;-69
2023/07/14 05:13:29;;;;;;;9.27;7.95;;;;;;;14.97;100.00;101471.25;5036902;28;20029;-75
2023/07/14 05:15:58;;;;;;;9.45;8.20;;;;;;;15.02;100.00;101462.91;5032597;28;20375;-75
2023/07/14 05:18:24;;;;;;;8.30;7.47;;;;;;;14.99;100.00;101465.78;5035421;28;20029;-74
2023/07/14 05:20:51;;;;;;;9.73;8.23;;;;;;;14.97;100.00;101456.97;5037145;28;20040;-72
2023/07/14 05:23:17;;;;;;;8.05;6.93;;;;;;;14.95;100.00;101460.59;5037011;28;20029;-71
2023/07/14 05:25:43;;;;;;;7.95;7.15;;;;;;;14.99;100.00;101465.78;5033270;28;20021;-71
2023/07/14 05:28:09;;;;;;;11.02;7.90;;;;;;;15.08;100.00;101449.13;5034571;28;20030;-75
2023/07/14 05:30:35;;;;;;;8.98;7.15;;;;;;;15.13;100.00;101444.34;5034695;28;20045;-78
2023/07/14 05:33:02;;;;;;;7.25;6.53;;;;;;;15.25;100.00;101456.16;5034256;28;20372;-68
2023/07/14 05:35:27;;;;;;;7.15;6.38;;;;;;;15.44;100.00;101465.69;5024689;28;20039;-78
2023/07/14 05:37:53;;;;;;;7.55;6.10;;;;;;;15.56;99.99;101455.16;5024476;28;20551;-75
2023/07/14 05:40:20;;;;;;;8.15;5.50;;;;;;;15.66;98.38;101462.56;5033665;28;20079;-77
2023/07/14 05:42:46;;;;;;;8.52;5.43;;;;;;;15.82;98.99;101461.59;5042068;28;20035;-76
2023/07/14 05:45:12;;;;;;;8.05;5.53;;;;;;;16.02;96.17;101458.53;5027880;28;20124;-71
2023/07/14 05:47:40;;;;;;;7.50;5.43;;;;;;;16.20;95.09;101451.09;5023375;28;20548;-78
2023/07/14 05:50:06;;;;;;;6.72;4.60;;;;;;;16.28;91.56;101459.53;5036499;28;20048;-78
2023/07/14 05:52:33;;;;;;;7.30;4.82;;;;;;;16.34;92.96;101458.25;5030162;28;20028;-75
2023/07/14 05:54:58;;;;;;;7.88;4.63;;;;;;;16.34;92.01;101456.41;5031246;28;20037;-69
2023/07/14 05:57:24;;;;;;;5.25;4.32;;;;;;;16.49;91.96;101445.66;5033899;28;20033;-75
2023/07/14 05:59:49;;;;;;;5.97;4.40;;;;;;;16.59;90.75;101455.66;5031252;28;20094;-74
2023/07/14 06:02:15;;;;;;;7.72;4.82;;;;;;;16.73;90.91;101456.63;5034092;28;20040;-74
2023/07/14 06:04:41;;;;;;;6.25;4.30;;;;;;;16.94;90.10;101457.88;5041138;28;20280;-73
2023/07/14 06:07:09;;;;;;;5.32;4.28;;;;;;;17.03;87.65;101459.06;5035672;28;20048;-72
2023/07/14 06:09:36;;;;;;;10.50;4.55;;;;;;;17.07;88.02;101452.53;5040045;28;20028;-74
2023/07/14 06:12:04;;;;;;;5.90;4.30;;;;;;;17.21;87.73;101456.94;5038296;28;20060;-70
2023/07/14 06:14:32;;;;;;;7.63;4.28;;;;;;;17.27;85.60;101464.59;5037984;28;20021;-72
2023/07/14 06:16:58;;;;;;;5.75;3.97;;;;;;;17.36;85.66;101462.13;5034507;28;20027;-79
2023/07/14 06:19:24;;;;;;;8.15;3.92;;;;;;;17.41;85.15;101459.97;5038334;28;20052;-73
2023/07/14 06:21:50;;;;;;;5.57;3.78;;;;;;;17.39;84.13;101453.84;5031438;28;20059;-76
2023/07/14 06:24:16;;;;;;;5.85;3.60;;;;;;;17.41;83.49;101449.22;5037477;28;20039;-70
2023/07/14 06:26:44;;;;;;;6.53;3.75;;;;;;;17.43;83.16;101455.34;5040177;28;20092;-76
2023/07/14 06:29:10;;;;;;;5.70;3.55;;;;;;;17.58;83.16;101455.25;5036382;28;20033;-68
2023/07/14 06:31:35;;;;;;;6.93;3.67;;;;;;;17.81;82.36;101456.34;5036673;28;20078;-76
2023/07/14 06:34:03;;;;;;;5.55;3.80;;;;;;;17.97;80.32;101454.25;5034294;28;20491;-69
2023/07/14 06:36:29;;;;;;;7.18;4.00;;;;;;;18.07;79.31;101452.63;5038052;28;20036;-69
2023/07/14 06:38:54;;;;;;;5.63;4.00;;;;;;;17.99;78.94;101456.84;5034496;28;20028;-78
2023/07/14 06:41:20;;;;;;;4.90;3.38;;;;;;;18.00;80.95;101440.56;5038777;28;20556;-78
2023/07/14 06:43:45;;;;;;;4.75;3.08;;;;;;;18.04;79.79;101454.66;5037838;28;20052;-72
2023/07/14 06:46:11;;;;;;;5.75;3.25;;;;;;;18.08;78.53;101446.25;5034948;28;20028;-76
2023/07/14 06:48:36;;;;;;;9.68;4.78;;;;;;;18.07;77.38;101449.06;5038348;28;20056;-74
2023/07/14 06:51:02;;;;;;;5.63;3.53;;;;;;;18.20;77.89;101454.41;5025969;28;20091;-69
2023/07/14 06:53:28;;;;;;;4.30;3.50;;;;;;;18.50;77.34;101451.28;5025334;28;20562;-78
2023/07/14 06:55:54;;;;;;;4.22;3.05;;;;;;;18.67;75.91;101448.19;5028279;28;20112;-72
2023/07/14 06:58:19;;;;;;;5.20;3.15;;;;;;;18.73;73.77;101438.78;5029912;28;20033;-79
2023/07/14 07:00:45;;;;;;;5.15;3.63;;;;;;;18.81;73.37;101447.16;5034162;28;20295;-71
2023/07/14 07:03:10;;;;;;;4.68;2.88;;;;;;;18.81;73.20;101447.16;5035235;28;20025;-74
2023/07/14 07:05:38;;;;;;;4.60;3.10;;;;;;;19.01;72.63;101438.41;5041247;28;20135;-71
2023/07/14 07:08:11;;;;;;;3.95;3.10;;;;;;;19.32;73.00;101445.00;5046543;28;20078;-69
2023/07/14 07:10:39;;;;;;;4.10;3.10;;;;;;;19.35;69.51;101439.38;5036381;28;20031;-78
2023/07/14 07:13:04;;;;;;;5.82;3.20;;;;;;;19.13;68.92;101439.31;5055503;28;20025;-76
2023/07/14 07:15:33;;;;;;;4.68;2.85;;;;;;;19.19;70.91;101435.25;5044044;28;20032;-72
2023/07/14 07:17:58;;;;;;;4.75;2.75;;;;;;;19.36;69.66;101434.84;5027317;28;20153;-73
2023/07/14 07:20:24;;;;;;;4.03;3.10;;;;;;;19.48;68.41;101427.59;5036860;28;20082;-68
2023/07/14 07:22:49;;;;;;;6.35;3.65;;;;;;;19.73;67.87;101422.00;5045738;28;20087;-73
2023/07/14 07:25:16;;;;;;;4.47;3.17;;;;;;;19.89;67.23;101422.47;5041179;28;20044;-75
2023/07/14 07:27:42;;;;;;;4.53;2.65;;;;;;;20.01;66.99;101415.22;5038486;28;20028;-72
2023/07/14 07:30:09;;;;;;;4.75;2.72;;;;;;;20.08;66.10;101416.44;5047957;28;20098;-71
2023/07/14 07:32:35;;;;;;;4.30;2.63;;;;;;;20.01;65.35;101408.94;5046497;28;20595;-79
2023/07/14 07:35:03;;;;;;;4.65;2.75;;;;;;;20.00;66.94;101407.25;5050284;28;20111;-76
2023/07/14 07:37:32;;;;;;;3.47;2.58;;;;;;;20.12;64.19;101408.94;5035488;28;20025;-76
2023/07/14 07:39:58;;;;;;;6.35;2.65;;;;;;;20.07;65.37;101414.72;5048061;28;20036;-69
2023/07/14 07:42:24;;;;;;;5.75;2.63;;;;;;;20.20;65.31;101411.88;5031549;28;20048;-77
2023/07/14 07:44:50;;;;;;;5.50;2.63;;;;;;;20.37;63.89;101408.63;5042532;28;20493;-75
2023/07/14 07:47:15;;;;;;;4.47;2.97;;;;;;;20.69;63.96;101407.78;5032035;28;20040;-73
2023/07/14 07:49:41;;;;;;;4.10;2.90;;;;;;;20.96;62.69;101411.84;5038552;28;20270;-66
2023/07/14 07:52:08;;;;;;;3.25;2.60;;;;;;;21.22;62.23;101401.47;5030287;28;20033;-75
2023/07/14 07:54:34;;;;;;;3.88;2.75;;;;;;;21.12;61.37;101404.97;5032037;28;20037;-77
2023/07/14 07:56:59;;;;;;;4.88;2.58;;;;;;;21.11;61.57;101399.72;5042905;28;20037;-70
2023/07/14 07:59:24;;;;;;;3.28;2.30;;;;;;;21.03;60.17;101399.50;5031244;28;20107;-72
2023/07/14 08:01:50;;;;;;;4.65;2.90;;;;;;;20.84;59.16;101409.19;5036800;28;20511;-75
2023/07/14 08:04:18;;;;;;;4.35;2.58;;;;;;;20.81;60.92;101403.19;5038503;28;20027;-69
2023/07/14 08:06:44;;;;;;;4.68;2.40;;;;;;;20.78;61.69;101406.16;5040599;28;20029;-68
2023/07/14 08:09:10;;;;;;;5.53;2.80;;;;;;;20.64;61.49;101402.75;5040843;28;20112;-76
2023/07/14 08:11:36;;;;;;;4.80;2.65;;;;;;;20.49;62.51;101400.50;5042200;28;20021;-72
2023/07/14 08:14:02;;;;;;;3.47;2.42;;;;;;;20.43;62.76;101392.88;5036097;28;20392;-75
2023/07/14 08:16:29;;;;;;;4.18;2.55;;;;;;;20.47;63.59;101391.63;5041844;28;20032;-76
2023/07/14 08:18:54;;;;;;;6.00;2.80;;;;;;;20.55;63.14;101392.72;5044655;28;20498;-71
2023/07/14 08:21:20;;;;;;;4.00;2.65;;;;;;;20.66;61.84;101397.25;5043252;28;20243;-76
2023/07/14 08:23:45;;;;;;;4.40;2.70;;;;;;;20.72;61.47;101396.72;5037667;28;20094;-78
2023/07/14 08:26:12;;;;;;;5.07;2.40;;;;;;;20.82;62.26;101389.53;5036794;28;20032;-73
2023/07/14 08:28:38;;;;;;;4.28;2.70;;;;;;;21.03;61.02;101391.41;5037359;28;20047;-71
2023/07/14 08:31:07;;;;;;;6.20;2.70;;;;;;;21.96;61.42;101387.72;5056212;28;20482;-72
2023/07/14 08:33:33;;;;;;;3.53;2.33;;;;;;;23.16;54.97;101391.94;5040355;28;20501;-68
2023/07/14 08:36:02;;;;;;;4.15;2.53;;;;;;;23.57;52.35;101382.50;5052179;28;20041;-78
2023/07/14 08:38:30;;;;;;;4.93;2.63;;;;;;;23.67;51.45;101389.81;5040040;28;20123;-72
2023/07/14 08:41:23;;;;;;;5.05;2.55;;;;;;;23.84;53.00;101389.84;5057515;28;20028;-74
2023/07/14 08:44:26;;;;;;;4.45;2.42;;;;;;;24.26;52.60;101383.00;5038655;28;20037;-72
2023/07/14 08:47:13;;;;;;;5.50;2.47;;;;;;;25.54;48.04;101383.41;5031011;28;20063;-76
2023/07/14 08:49:53;;;;;;;4.15;2.42;;;;;;;27.00;45.40;101383.91;5045577;28;20155;-72
2023/07/14 08:52:40;;;;;;;3.92;2.17;;;;;;;27.88;41.97;101377.56;5035579;28;20025;-74
2023/07/14 08:55:14;;;;;;;3.92;2.30;;;;;;;28.18;41.66;101376.75;5039832;28;20029;-79
2023/07/14 08:58:15;;;;;;;2.97;1.85;;;;;;;29.31;41.11;101378.75;5046760;28;20730;-70
2023/07/14 09:00:54;;;;;;;3.50;2.05;;;;;;;29.70;38.29;101378.47;5030350;28;20091;-77
2023/07/14 09:03:41;;;;;;;3.55;1.90;;;;;;;29.88;38.55;101371.75;5038669;28;20083;-71
2023/07/14 09:06:16;;;;;;;2.85;1.90;;;;;;;29.85;37.59;101363.88;5048916;28;20407;-79
2023/07/14 09:08:42;;;;;;;4.43;2.38;;;;;;;29.28;37.82;101369.00;5040503;28;20064;-75
2023/07/14 09:11:18;;;;;;;3.97;2.22;;;;;;;28.86;38.95;101365.97;5038307;28;20059;-78
2023/07/14 09:14:30;;;;;;;6.47;2.30;;;;;;;29.14;39.20;101363.53;5045550;28;20124;-75
2023/07/14 09:17:19;;;;;;;7.07;2.60;;;;;;;29.07;38.06;101366.16;5047062;28;20062;-72
2023/07/14 09:20:06;;;;;;;4.90;2.40;;;;;;;29.49;39.13;101359.19;5033566;28;20420;-76
2023/07/14 09:22:56;;;;;;;3.85;2.40;;;;;;;29.60;37.58;101363.38;5037594;28;20037;-67
2023/07/14 09:25:56;;;;;;;5.38;2.50;;;;;;;30.34;38.76;101352.22;5038673;28;20558;-75
2023/07/14 09:28:37;;;;;;;4.47;2.35;;;;;;;29.08;38.03;101361.50;5038312;28;20025;-74
2023/07/14 09:31:11;;;;;;;4.10;2.72;;;;;;;28.50;38.00;101352.91;5027933;28;20111;-74
2023/07/14 09:33:47;;;;;;;3.22;2.20;;;;;;;28.15;39.88;101354.34;5037893;28;20492;-70
2023/07/14 09:36:13;;;;;;;5.60;2.60;;;;;;;27.99;39.24;101337.00;5024584;28;20507;-70
2023/07/14 09:39:03;;;;;;;4.28;2.00;;;;;;;28.42;40.69;101345.63;5040425;28;20116;-73
2023/07/14 09:41:28;;;;;;;3.22;2.25;;;;;;;28.69;39.10;101336.00;5047349;28;20024;-77
2023/07/14 09:43:58;;;;;;;4.20;2.50;;;;;;;29.14;38.66;101334.22;5039124;28;20565;-77
2023/07/14 09:46:25;;;;;;;3.60;2.30;;;;;;;29.73;36.88;101331.47;5041206;28;20032;-71
2023/07/14 09:49:04;;;;;;;4.63;2.50;;;;;;;29.96;37.76;101327.72;5046319;28;20311;-78
2023/07/14 09:51:30;;;;;;;4.63;2.10;;;;;;;30.78;35.01;101329.22;5040991;28;20254;-69
2023/07/14 09:54:10;;;;;;;5.40;2.15;;;;;;;30.47;36.24;101320.28;5046254;28;20037;-76
2023/07/14 09:56:42;;;;;;;5.03;2.70;;;;;;;29.95;36.13;101324.13;5038428;28;20053;-77
2023/07/14 09:59:22;;;;;;;3.95;2.20;;;;;;;30.95;36.41;101330.63;5051890;28;20538;-70
2023/07/14 10:01:54;;;;;;;4.15;2.35;;;;;;;30.56;35.08;101314.63;5037855;28;20399;-78
2023/07/14 10:04:26;;;;;;;3.35;2.28;;;;;;;30.42;34.57;101319.16;5041086;28;20036;-76
2023/07/14 10:06:52;;;;;;;3.15;2.30;;;;;;;30.08;35.77;101315.19;5045628;28;20127;-76
2023/07/14 10:09:20;;;;;;;3.03;2.30;;;;;;;29.07;36.32;101308.59;5040341;28;20044;-77
2023/07/14 10:11:47;;;;;;;3.38;2.10;;;;;;;28.47;37.57;101304.03;5047678;28;20025;-70
2023/07/14 10:14:25;;;;;;;3.55;2.28;;;;;;;27.78;39.02;101299.31;5034317;28;20072;-76
2023/07/14 10:16:53;;;;;;;4.03;2.75;;;;;;;27.36;39.85;101296.09;5043611;28;20462;-75
2023/07/14 10:19:20;;;;;;;4.38;2.00;;;;;;;26.98;40.49;101290.38;5036547;28;20028;-74
2023/07/14 10:21:57;;;;;;;4.53;2.30;;;;;;;26.78;41.45;101288.00;5040436;28;20089;-77
2023/07/14 10:24:24;;;;;;;4.85;2.20;;;;;;;26.65;41.13;101282.22;5039620;28;20036;-74
2023/07/14 10:26:57;;;;;;;4.28;2.95;;;;;;;26.56;41.82;101281.38;5044427;28;20039;-78
2023/07/14 10:29:25;;;;;;;3.83;2.22;;;;;;;27.65;40.69;101271.69;5037821;28;20730;-75
2023/07/14 10:32:14;;;;;;;3.75;1.90;;;;;;;28.97;39.23;101266.91;5043559;28;20028;-74
2023/07/14 10:34:53;;;;;;;2.63;2.10;;;;;;;29.80;36.66;101256.59;5045407;28;20271;-76
2023/07/14 10:37:26;;;;;;;6.97;2.58;;;;;;;30.75;34.32;101267.25;5051868;28;20082;-72
2023/07/14 10:40:14;;;;;;;4.28;2.78;;;;;;;31.75;34.62;101250.22;5057645;28;20028;-74
2023/07/14 10:43:06;;;;;;;3.47;2.40;;;;;;;32.41;33.31;101255.03;5041337;28;20078;-74
2023/07/14 10:45:34;;;;;;;2.63;2.15;;;;;;;32.65;31.69;101242.53;5001263;28;20049;-67
2023/07/14 10:48:06;;;;;;;3.13;1.90;;;;;;;32.90;31.04;101248.22;5015060;28;20061;-75
2023/07/14 10:50:54;;;;;;;5.15;2.58;;;;;;;33.19;31.59;101234.97;4992421;28;20263;-73
2023/07/14 10:53:28;;;;;;;3.78;1.90;;;;;;;32.66;30.27;101235.94;4996977;28;20037;-70
2023/07/14 10:55:58;;;;;;;3.28;2.10;;;;;;;31.81;31.57;101233.94;5002118;28;20060;-75
2023/07/14 10:58:38;;;;;;;3.42;2.25;;;;;;;31.10;32.83;101226.91;5001097;28;20037;-75
2023/07/14 11:01:15;;;;;;;2.88;2.00;;;;;;;29.76;34.97;101232.31;5000141;28;20116;-69
2023/07/14 11:03:50;;;;;;;3.25;2.00;;;;;;;28.81;37.42;101229.56;5001667;28;20037;-73
2023/07/14 11:06:31;;;;;;;2.78;2.20;;;;;;;28.20;37.36;101226.88;4996228;28;20084;-73
2023/07/14 11:08:57;;;;;;;3.08;2.03;;;;;;;27.50;38.29;101227.84;4997235;28;20040;-72
2023/07/14 11:11:33;;;;;;;3.85;2.33;;;;;;;27.43;38.75;101223.28;5002804;28;20029;-75
2023/07/14 11:14:16;;;;;;;6.85;2.17;;;;;;;27.68;39.89;101216.63;4997767;28;20432;-75
2023/07/14 11:16:54;;;;;;;;;;;;;;;29.74;37.39;101206.97;4998328;28;20281;-73
2023/07/14 11:19:23;;;;;;;3.22;2.08;;;;;;;30.08;34.18;101205.38;5004082;28;19910;-70
2023/07/14 11:22:00;;;;;;;6.50;2.20;;;;;;;29.54;35.64;101194.88;5000958;28;20048;-72
2023/07/14 11:24:53;;;;;;;3.17;1.98;;;;;;;29.38;36.58;101184.16;5036980;28;20025;-77
2023/07/14 11:27:24;;;;;;;3.75;2.08;;;;;;;28.57;35.81;101195.06;5026512;28;20204;-71
2023/07/14 11:29:59;;;;;;;3.50;2.05;;;;;;;28.16;37.73;101200.06;5032253;28;20458;-75
2023/07/14 11:32:36;;;;;;;2.13;1.92;;;;;;;28.35;37.43;101194.06;5037168;28;20041;-73
2023/07/14 11:35:34;;;;;;;5.22;2.15;;;;;;;28.86;37.19;101185.16;5038560;28;20035;-67